Aviation Digital Data Service (ADDS)

Output produced by METARs form (1015 UTC 20 September 2019)
found at http://aviationweather.gov/metar/data/
 
Forecast for: AMD
Text: TAF AMD EPDA 200911Z 2009/2018 25008KT 9999 BKN040
Forecast period: 0900 to 1800 UTC 20 September 2019
Forecast type: FROM: standard forecast or significant change
Winds: from the WSW (250 degrees) at 9 MPH (8 knots; 4.1 m/s)
Visibility: 6 or more miles 10+ km)
Ceiling: 4000 feet AGL
Clouds: broken clouds at 4000 feet AGL
Weather: no significant weather forecast for this period
Text: PROB40
Forecast period: 0900 to 1800 UTC 20 September 2019
Forecast type: TEMPORARY: The following changes expected for less than half the time period
Visibility: 2.49 miles (4.01 km)
Ceiling: 2000 feet AGL
Clouds: scattered clouds at 700 feet AGL
broken clouds at 2000 feet AGL
Weather: SHRA RA BR  (rain showers, moderate rain, mist)